^^
Saratoga-Weather Station Historical Data
Daily Summary for June 5, 2020 Units:  English    Metric   Both
Daily Weekly Monthly Yearly Custom
  High: Low: Average:
Temperature: 49.8 °F 36.9 °F 41.2 °F
Dew Point: 42.4 °F 35.2 °F 37.9 °F
Humidity: 95% 72% 89%
Wind Speed: 4.9mph 0mph 0.7mph
Wind Gust: 9mph - -
Wind- - SSW
Pressure: 30.7 in 30.6 in -
Precipitation: 0.01 in    
Historical Graphs
 
 
Tabular Data for June 5, 2020
Time Temperature Dew Point Pressure Wind Wind Speed Wind Gust Humidity Rainfall Rate (Hourly) solar
00:02 39.4 °F 37.6 °F 30.6 in Calm   2 mph 93% 0 in 0 W/m2
00:07 39.4 °F 37.6 °F 30.6 in WNW 0.9 mph 1 mph 93% 0 in 0 W/m2
00:12 39.2 °F 37.4 °F 30.6 in Calm   3 mph 93% 0 in 0 W/m2
00:17 39.4 °F 37.6 °F 30.6 in SW 0.9 mph 2 mph 93% 0 in 0 W/m2
00:22 39.4 °F 37.6 °F 30.6 in SW 0.9 mph 1 mph 93% 0 in 0 W/m2
00:27 39.4 °F 37.6 °F 30.6 in Calm     93% 0 in 0 W/m2
00:32 39.2 °F 37.4 °F 30.6 in SW 2 mph 2 mph 93% 0 in 0 W/m2
00:37 39 °F 37.2 °F 30.6 in Calm   1 mph 93% 0 in 0 W/m2
00:42 39 °F 37.2 °F 30.6 in Calm     93% 0 in 0 W/m2
00:47 39 °F 37.2 °F 30.6 in Calm     93% 0 in 0 W/m2
00:52 38.8 °F 37 °F 30.6 in Calm   1 mph 93% 0 in 0 W/m2
00:57 38.8 °F 37 °F 30.6 in Calm   1 mph 93% 0 in 0 W/m2
01:02 38.8 °F 37 °F 30.6 in Calm     93% 0 in 0 W/m2
01:07 38.8 °F 37 °F 30.6 in Calm     93% 0 in 0 W/m2
01:12 38.8 °F 37 °F 30.6 in SW 0.9 mph 2 mph 93% 0 in 0 W/m2
01:17 38.8 °F 37 °F 30.6 in SW 2 mph 3 mph 93% 0 in 0 W/m2
01:22 38.8 °F 37 °F 30.6 in Calm   2 mph 93% 0 in 0 W/m2
01:27 38.8 °F 37 °F 30.6 in SW 0.9 mph 3 mph 93% 0 in 0 W/m2
01:32 38.7 °F 36.9 °F 30.6 in Calm   3 mph 93% 0 in 0 W/m2
01:37 38.7 °F 36.9 °F 30.6 in Calm   1 mph 93% 0 in 0 W/m2
01:42 38.7 °F 36.9 °F 30.6 in WSW 0.9 mph 2 mph 93% 0 in 0 W/m2
01:47 38.7 °F 37 °F 30.6 in Calm   2 mph 94% 0 in 0 W/m2
01:52 38.5 °F 36.9 °F 30.6 in Calm     94% 0 in 0 W/m2
01:57 38.3 °F 36.5 °F 30.6 in WSW 0.9 mph 2 mph 93% 0 in 0 W/m2
02:02 38.1 °F 36.3 °F 30.6 in WSW 0.9 mph 2 mph 93% 0 in 0 W/m2
02:07 37.9 °F 36.1 °F 30.6 in Calm   1 mph 93% 0 in 0 W/m2
02:12 37.8 °F 36.1 °F 30.6 in WSW 0.9 mph 1 mph 94% 0 in 0 W/m2
02:17 37.8 °F 36 °F 30.6 in WSW 2 mph 2 mph 93% 0 in 0 W/m2
02:22 37.6 °F 35.8 °F 30.6 in SW 0.9 mph 2 mph 93% 0 in 0 W/m2
02:27 37.4 °F 35.8 °F 30.6 in Calm   1 mph 94% 0 in 0 W/m2
02:32 37.4 °F 35.8 °F 30.6 in Calm   2 mph 94% 0 in 0 W/m2
02:37 37.2 °F 35.6 °F 30.6 in Calm     94% 0 in 0 W/m2
02:42 37.2 °F 35.6 °F 30.6 in Calm   2 mph 94% 0 in 0 W/m2
02:47 37.2 °F 35.6 °F 30.6 in Calm     94% 0 in 0 W/m2
02:52 37.4 °F 35.8 °F 30.6 in Calm   2 mph 94% 0 in 0 W/m2
02:57 37.6 °F 36 °F 30.6 in Calm   1 mph 94% 0 in 0 W/m2
03:03 37.4 °F 35.8 °F 30.6 in WSW 0.9 mph 3 mph 94% 0 in 0 W/m2
03:08 37.4 °F 35.8 °F 30.6 in Calm   1 mph 94% 0 in 0 W/m2
03:13 37.2 °F 35.6 °F 30.6 in Calm     94% 0 in 0 W/m2
03:18 37.4 °F 36.1 °F 30.6 in Calm     95% 0 in 0 W/m2
03:23 37.6 °F 36.3 °F 30.6 in Calm   1 mph 95% 0 in 0 W/m2
03:28 37.4 °F 35.8 °F 30.6 in Calm   2 mph 94% 0 in 0 W/m2
03:33 37.2 °F 36 °F 30.6 in WSW 0.9 mph 1 mph 95% 0 in 0 W/m2
03:38 37.2 °F 36 °F 30.6 in Calm   3 mph 95% 0 in 0 W/m2
03:43 37.4 °F 36.1 °F 30.6 in Calm   2 mph 95% 0 in 0 W/m2
03:48 37.6 °F 36.3 °F 30.6 in South 0.9 mph 3 mph 95% 0 in 0 W/m2
03:53 37.6 °F 36.3 °F 30.6 in South 0.9 mph 2 mph 95% 0 in 0 W/m2
03:58 37.6 °F 36.3 °F 30.6 in Calm   1 mph 95% 0 in 0 W/m2
04:03 37.4 °F 36.1 °F 30.6 in South 0.9 mph 1 mph 95% 0 in 0 W/m2
04:08 37.2 °F 36 °F 30.6 in Calm   2 mph 95% 0 in 0 W/m2
04:13 37 °F 35.4 °F 30.6 in Calm     94% 0 in 0 W/m2
04:18 36.9 °F 35.2 °F 30.6 in Calm   2 mph 94% 0 in 0 W/m2
04:23 36.9 °F 35.6 °F 30.6 in Calm     95% 0 in 0 W/m2
04:28 36.9 °F 35.6 °F 30.6 in South 0.9 mph 1 mph 95% 0 in 0 W/m2
04:33 36.9 °F 35.6 °F 30.6 in Calm   2 mph 95% 0 in 0 W/m2
04:38 36.9 °F 35.6 °F 30.6 in Calm     95% 0 in 0 W/m2
04:43 37 °F 35.8 °F 30.6 in SSW 2.9 mph 3 mph 95% 0 in 0 W/m2
04:48 37.2 °F 36 °F 30.6 in SSW 0.9 mph 2 mph 95% 0 in 0 W/m2
04:53 37.2 °F 36 °F 30.6 in Calm   3 mph 95% 0 in 0 W/m2
04:58 37 °F 35.8 °F 30.6 in SSW 0.9 mph 2 mph 95% 0 in 0 W/m2
05:03 37 °F 35.8 °F 30.6 in Calm   2 mph 95% 0 in 0 W/m2
05:09 37.2 °F 36 °F 30.6 in Calm   3 mph 95% 0 in 0 W/m2
05:14 37.2 °F 36 °F 30.6 in SW 2 mph 2 mph 95% 0 in 0 W/m2
05:19 37.2 °F 36 °F 30.6 in WSW 0.9 mph 2 mph 95% 0 in 0 W/m2
05:24 37.2 °F 36 °F 30.6 in Calm   2 mph 95% 0 in 0 W/m2
05:29 37.4 °F 36.1 °F 30.6 in Calm   2 mph 95% 0 in 0 W/m2
05:34 37.6 °F 36.3 °F 30.6 in West 0.9 mph 2 mph 95% 0 in 0 W/m2
05:39 37.6 °F 36.3 °F 30.6 in West 2 mph 2 mph 95% 0 in 0 W/m2
05:44 37.4 °F 36.1 °F 30.6 in Calm   1 mph 95% 0 in 0 W/m2
05:49 37.2 °F 36 °F 30.6 in WSW 0.9 mph 2 mph 95% 0 in 0 W/m2
05:54 37.4 °F 36.1 °F 30.6 in NW 0.9 mph 1 mph 95% 0 in 0 W/m2
05:59 37.4 °F 36.1 °F 30.6 in North 2 mph 4 mph 95% 0 in 0 W/m2
06:04 37.6 °F 36.3 °F 30.6 in Calm     95% 0 in 0 W/m2
06:09 37.4 °F 36.1 °F 30.6 in West 0.9 mph 2 mph 95% 0.01 in 0 W/m2
06:14 37.2 °F 36 °F 30.6 in Calm     95% 0.01 in 0 W/m2
06:19 37.2 °F 36 °F 30.6 in West 0.9 mph 2 mph 95% 0.01 in 0 W/m2
06:24 37.2 °F 36 °F 30.6 in Calm   2 mph 95% 0.01 in 0 W/m2
06:29 37.4 °F 36.1 °F 30.6 in Calm   1 mph 95% 0.01 in 0 W/m2
06:34 37.6 °F 36.3 °F 30.6 in NE 0.9 mph 2 mph 95% 0.01 in 0 W/m2
06:39 37.6 °F 36.3 °F 30.6 in Calm   2 mph 95% 0.01 in 0 W/m2
06:44 37.6 °F 36.3 °F 30.6 in Calm   2 mph 95% 0.01 in 0 W/m2
06:49 37.6 °F 36.3 °F 30.6 in Calm   1 mph 95% 0.01 in 0 W/m2
06:54 37.2 °F 36 °F 30.6 in Calm   2 mph 95% 0.01 in 0 W/m2
06:59 37 °F 35.8 °F 30.6 in NW 0.9 mph 2 mph 95% 0.01 in 0 W/m2
07:04 37 °F 35.8 °F 30.6 in South 0.9 mph 1 mph 95% 0 in 0 W/m2
07:09 37 °F 35.8 °F 30.6 in Calm     95% 0 in 0 W/m2
07:14 36.9 °F 35.6 °F 30.6 in NNE 0.9 mph 2 mph 95% 0 in 0 W/m2
07:19 37 °F 35.8 °F 30.6 in Calm     95% 0 in 0 W/m2
07:24 37 °F 35.8 °F 30.6 in Calm   4 mph 95% 0 in 0 W/m2
07:29 37 °F 35.8 °F 30.6 in Calm   2 mph 95% 0 in 5 W/m2
07:34 37 °F 35.8 °F 30.6 in Calm   4 mph 95% 0 in 5 W/m2
07:39 37 °F 35.8 °F 30.6 in SW 0.9 mph 2 mph 95% 0 in 9 W/m2
07:44 37 °F 35.8 °F 30.7 in Calm   2 mph 95% 0 in 11 W/m2
07:49 37 °F 35.8 °F 30.7 in Calm     95% 0 in 14 W/m2
07:54 37 °F 35.8 °F 30.7 in North 0.9 mph 4 mph 95% 0 in 18 W/m2
07:59 37.2 °F 36 °F 30.7 in East 0.9 mph 3 mph 95% 0 in 19 W/m2
08:04 37.2 °F 36 °F 30.7 in South 0.9 mph 2 mph 95% 0 in 21 W/m2
08:09 37.2 °F 36 °F 30.7 in WNW 0.9 mph 3 mph 95% 0 in 25 W/m2
08:14 37.2 °F 36 °F 30.7 in Calm     95% 0 in 25 W/m2
08:19 37.2 °F 36 °F 30.7 in Calm     95% 0 in 28 W/m2
08:24 37.2 °F 36 °F 30.7 in Calm   1 mph 95% 0 in 37 W/m2
08:29 37.2 °F 36 °F 30.7 in Calm     95% 0 in 32 W/m2
08:34 37.2 °F 36 °F 30.7 in Calm     95% 0 in 33 W/m2
08:39 37.2 °F 36 °F 30.7 in Calm     95% 0 in 37 W/m2
08:44 37.2 °F 36 °F 30.7 in Calm     95% 0 in 40 W/m2
08:49 37.4 °F 36.1 °F 30.7 in Calm     95% 0 in 56 W/m2
08:54 37.4 °F 36.1 °F 30.7 in Calm   2 mph 95% 0 in 69 W/m2
08:59 37.8 °F 36.5 °F 30.7 in Calm   1 mph 95% 0 in 60 W/m2
09:04 37.8 °F 36.5 °F 30.7 in Calm     95% 0 in 72 W/m2
09:09 37.9 °F 36.7 °F 30.7 in Calm   2 mph 95% 0 in 44 W/m2
09:14 37.9 °F 36.7 °F 30.7 in Calm     95% 0 in 69 W/m2
09:19 38.1 °F 36.9 °F 30.7 in Calm     95% 0 in 111 W/m2
09:24 38.3 °F 37 °F 30.7 in Calm   1 mph 95% 0 in 90 W/m2
09:29 38.5 °F 37.2 °F 30.7 in Calm   1 mph 95% 0 in 79 W/m2
09:34 38.7 °F 37.4 °F 30.7 in Calm   3 mph 95% 0 in 83 W/m2
09:40 39 °F 37.8 °F 30.7 in Calm   1 mph 95% 0 in 54 W/m2
09:45 39 °F 37.8 °F 30.7 in SSE 0.9 mph 1 mph 95% 0 in 46 W/m2
09:50 39 °F 37.4 °F 30.7 in Calm   1 mph 94% 0 in 44 W/m2
09:55 39.2 °F 37.6 °F 30.7 in Calm   1 mph 94% 0 in 47 W/m2
10:00 39.4 °F 37.8 °F 30.7 in Calm     94% 0 in 53 W/m2
10:05 39.4 °F 37.8 °F 30.7 in Calm   2 mph 94% 0 in 53 W/m2
10:10 39.6 °F 37.9 °F 30.7 in East 0.9 mph 1 mph 94% 0 in 53 W/m2
10:15 39.7 °F 38.1 °F 30.7 in Calm   2 mph 94% 0 in 53 W/m2
10:20 40.1 °F 38.5 °F 30.7 in Calm   1 mph 94% 0 in 58 W/m2
10:25 40.3 °F 38.7 °F 30.7 in NE 0.9 mph 3 mph 94% 0 in 67 W/m2
10:30 40.6 °F 38.8 °F 30.7 in East 2.9 mph 7 mph 93% 0 in 62 W/m2
10:35 41 °F 39.2 °F 30.7 in ESE 0.9 mph 4 mph 93% 0 in 51 W/m2
10:40 41.5 °F 39.7 °F 30.7 in ENE 2 mph 7 mph 93% 0 in 47 W/m2
10:45 41.9 °F 39.7 °F 30.7 in NE 2 mph 3 mph 92% 0 in 47 W/m2
10:50 42.3 °F 39.7 °F 30.7 in East 4 mph 5 mph 91% 0 in 49 W/m2
10:55 42.4 °F 39.9 °F 30.7 in Calm   3 mph 91% 0 in 60 W/m2
11:00 42.6 °F 39.9 °F 30.7 in East 2.9 mph 3 mph 90% 0 in 53 W/m2
11:05 43 °F 40.3 °F 30.7 in SE 2 mph 4 mph 90% 0 in 49 W/m2
11:10 43.2 °F 40.1 °F 30.7 in ENE 0.9 mph 4 mph 89% 0 in 46 W/m2
11:15 43.5 °F 40.5 °F 30.7 in NW 2 mph 3 mph 89% 0 in 47 W/m2
11:20 43.9 °F 40.6 °F 30.7 in Calm   4 mph 88% 0 in 46 W/m2
11:25 44.1 °F 40.5 °F 30.7 in Calm   2 mph 87% 0 in 46 W/m2
11:30 44.2 °F 40.3 °F 30.7 in ENE 2.9 mph 4 mph 86% 0 in 47 W/m2
11:35 44.4 °F 40.5 °F 30.7 in Calm   2 mph 86% 0 in 49 W/m2
11:40 44.8 °F 40.5 °F 30.7 in North 4.9 mph 5 mph 85% 0 in 49 W/m2
11:45 45 °F 40.6 °F 30.7 in NE 2 mph 4 mph 85% 0 in 60 W/m2
11:50 45.1 °F 40.6 °F 30.6 in North 2 mph 4 mph 84% 0 in 197 W/m2
11:55 45.1 °F 40.6 °F 30.6 in NW 2 mph 2 mph 84% 0 in 135 W/m2
12:00 45.3 °F 40.8 °F 30.6 in SE 0.9 mph 2 mph 84% 0 in 116 W/m2
12:05 45.7 °F 40.8 °F 30.6 in Calm   3 mph 83% 0 in 62 W/m2
12:10 45.7 °F 40.8 °F 30.6 in ENE 0.9 mph 4 mph 83% 0 in 53 W/m2
12:15 46 °F 41.2 °F 30.6 in NNW 0.9 mph 3 mph 83% 0 in 47 W/m2
12:20 46 °F 40.8 °F 30.6 in ESE 4 mph 6 mph 82% 0 in 44 W/m2
12:25 46.2 °F 41 °F 30.6 in East 2.9 mph 3 mph 82% 0 in 46 W/m2
12:30 46.4 °F 40.8 °F 30.6 in Calm   1 mph 81% 0 in 47 W/m2
12:35 46.6 °F 41 °F 30.6 in Calm   2 mph 81% 0 in 47 W/m2
12:40 46.8 °F 41.2 °F 30.6 in ESE 2.9 mph 4 mph 81% 0 in 46 W/m2
12:45 46.9 °F 41.2 °F 30.6 in NE 4 mph 5 mph 80% 0 in 47 W/m2
12:50 47.1 °F 41.4 °F 30.6 in Calm   3 mph 80% 0 in 60 W/m2
12:55 47.1 °F 41 °F 30.6 in Calm   3 mph 79% 0 in 47 W/m2
13:00 47.5 °F 41.4 °F 30.6 in NW 2.9 mph 6 mph 79% 0 in 67 W/m2
13:06 47.7 °F 41.5 °F 30.6 in SSW 0.9 mph 3 mph 79% 0 in 95 W/m2
13:11 47.7 °F 41.5 °F 30.6 in NE 4 mph 5 mph 79% 0 in 56 W/m2
13:16 47.8 °F 41.4 °F 30.6 in North 0.9 mph 2 mph 78% 0 in 67 W/m2
13:21 48 °F 41.5 °F 30.6 in Calm   5 mph 78% 0 in 65 W/m2
13:26 48 °F 41.9 °F 30.6 in ENE 2.9 mph 3 mph 79% 0 in 58 W/m2
13:31 48.4 °F 42.3 °F 30.6 in East 2 mph 4 mph 79% 0 in 53 W/m2
13:36 48.6 °F 42.1 °F 30.6 in ENE 4.9 mph 6 mph 78% 0 in 67 W/m2
13:41 48.6 °F 42.1 °F 30.6 in Calm   2 mph 78% 0 in 70 W/m2
13:46 48.7 °F 42.3 °F 30.6 in NW 0.9 mph 5 mph 78% 0 in 53 W/m2
13:51 48.9 °F 42.4 °F 30.6 in NE 2.9 mph 6 mph 78% 0 in 62 W/m2
13:56 48.9 °F 42.1 °F 30.6 in WNW 0.9 mph 4 mph 77% 0 in 47 W/m2
14:01 49.3 °F 42.4 °F 30.6 in East 0.9 mph 6 mph 77% 0 in 47 W/m2
14:06 49.3 °F 42.1 °F 30.6 in WSW 2 mph 5 mph 76% 0 in 47 W/m2
14:11 49.3 °F 42.4 °F 30.6 in NNW 2 mph 7 mph 77% 0 in 46 W/m2
14:16 49.5 °F 42.3 °F 30.6 in Calm   5 mph 76% 0 in 42 W/m2
14:21 49.5 °F 42.3 °F 30.6 in Calm   3 mph 76% 0 in 42 W/m2
14:26 49.5 °F 42.3 °F 30.6 in NNE 2.9 mph 9 mph 76% 0 in 40 W/m2
14:31 49.6 °F 42.1 °F 30.6 in NNW 4 mph 4 mph 75% 0 in 40 W/m2
14:36 49.6 °F 42.1 °F 30.6 in Calm   4 mph 75% 0 in 39 W/m2
14:41 49.8 °F 42.3 °F 30.6 in NE 2 mph 4 mph 75% 0 in 39 W/m2
14:46 49.8 °F 41.5 °F 30.6 in NNE 4 mph 6 mph 73% 0 in 39 W/m2
14:51 49.8 °F 41.9 °F 30.6 in ESE 0.9 mph 2 mph 74% 0 in 39 W/m2
14:56 49.8 °F 41.5 °F 30.6 in NE 2 mph 4 mph 73% 0 in 37 W/m2
15:01 49.6 °F 41.7 °F 30.6 in NW 2 mph 3 mph 74% 0 in 37 W/m2
15:06 49.6 °F 41.7 °F 30.6 in WNW 0.9 mph 3 mph 74% 0 in 35 W/m2
15:11 49.8 °F 41.9 °F 30.6 in ENE 4.9 mph 6 mph 74% 0 in 35 W/m2
15:16 49.8 °F 41.5 °F 30.6 in Calm   3 mph 73% 0 in 33 W/m2
15:21 49.8 °F 41.5 °F 30.6 in NNW 2.9 mph 3 mph 73% 0 in 33 W/m2
15:26 49.8 °F 41.5 °F 30.6 in ENE 0.9 mph 2 mph 73% 0 in 32 W/m2
15:31 49.8 °F 41.5 °F 30.6 in Calm   1 mph 73% 0 in 32 W/m2
15:36 49.8 °F 41.2 °F 30.6 in North 2.9 mph 3 mph 72% 0 in 30 W/m2
15:41 49.6 °F 41 °F 30.6 in SSE 0.9 mph 3 mph 72% 0 in 30 W/m2
15:46 49.6 °F 41 °F 30.6 in East 2 mph 2 mph 72% 0 in 28 W/m2
15:51 49.5 °F 41.2 °F 30.6 in East 0.9 mph 2 mph 73% 0 in 28 W/m2
15:56 49.5 °F 41.2 °F 30.6 in WNW 2 mph 3 mph 73% 0 in 26 W/m2
16:01 49.3 °F 41.4 °F 30.6 in North 0.9 mph 3 mph 74% 0 in 26 W/m2
16:06 48.9 °F 41 °F 30.6 in Calm   4 mph 74% 0 in 26 W/m2
16:11 48.9 °F 41.4 °F 30.6 in Calm   1 mph 75% 0 in 25 W/m2
16:16 48.7 °F 41.2 °F 30.6 in NNW 0.9 mph 2 mph 75% 0 in 23 W/m2
16:21 48.7 °F 41.2 °F 30.6 in NW 0.9 mph 3 mph 75% 0 in 23 W/m2
16:26 48.7 °F 41.2 °F 30.6 in WNW 0.9 mph 2 mph 75% 0 in 21 W/m2
16:31 48.6 °F 41.4 °F 30.6 in Calm   3 mph 76% 0 in 19 W/m2
16:36 48.4 °F 41.2 °F 30.6 in Calm   1 mph 76% 0 in 18 W/m2
16:41 48.2 °F 41 °F 30.6 in NE 0.9 mph 3 mph 76% 0 in 16 W/m2
16:46 48 °F 41.2 °F 30.6 in Calm   2 mph 77% 0 in 14 W/m2
16:51 47.8 °F 41.4 °F 30.6 in South 0.9 mph 4 mph 78% 0 in 12 W/m2
16:56 47.5 °F 41 °F 30.6 in NW 0.9 mph 4 mph 78% 0 in 11 W/m2
17:01 47.3 °F 40.8 °F 30.6 in Calm   2 mph 78% 0 in 7 W/m2
17:06 46.9 °F 40.8 °F 30.6 in Calm   4 mph 79% 0 in 5 W/m2
17:11 46.8 °F 40.6 °F 30.6 in Calm   1 mph 79% 0 in 0 W/m2
17:16 46.6 °F 40.8 °F 30.6 in Calm     80% 0 in 0 W/m2
17:21 46.2 °F 40.5 °F 30.6 in Calm     80% 0 in 0 W/m2
17:26 45.9 °F 40.3 °F 30.6 in Calm   1 mph 81% 0 in 0 W/m2
17:31 45.7 °F 40.1 °F 30.6 in NW 0.9 mph 1 mph 81% 0 in 0 W/m2
17:36 45.3 °F 40.1 °F 30.6 in Calm   1 mph 82% 0 in 0 W/m2
17:41 45.1 °F 40.3 °F 30.6 in Calm   1 mph 83% 0 in 0 W/m2
17:46 45 °F 40.1 °F 30.6 in SSE 0.9 mph 1 mph 83% 0 in 0 W/m2
17:51 44.8 °F 39.9 °F 30.6 in Calm   4 mph 83% 0 in 0 W/m2
17:56 44.6 °F 40.1 °F 30.6 in East 0.9 mph 2 mph 84% 0 in 0 W/m2
18:01 44.6 °F 40.1 °F 30.6 in East 2 mph 2 mph 84% 0 in 0 W/m2
18:06 44.4 °F 39.9 °F 30.6 in Calm   1 mph 84% 0 in 0 W/m2
18:11 44.2 °F 39.7 °F 30.6 in Calm   2 mph 84% 0 in 0 W/m2
18:16 44.1 °F 39.9 °F 30.6 in Calm   1 mph 85% 0 in 0 W/m2
18:21 43.9 °F 39.7 °F 30.6 in Calm     85% 0 in 0 W/m2
18:26 43.7 °F 39.7 °F 30.6 in Calm   1 mph 86% 0 in 0 W/m2
18:31 43.3 °F 39.4 °F 30.6 in Calm     86% 0 in 0 W/m2
18:36 43.2 °F 39.2 °F 30.6 in Calm     86% 0 in 0 W/m2
18:41 43 °F 39.4 °F 30.6 in Calm   2 mph 87% 0 in 0 W/m2
18:46 42.6 °F 39 °F 30.6 in Calm     87% 0 in 0 W/m2
18:51 42.4 °F 38.8 °F 30.6 in Calm   2 mph 87% 0 in 0 W/m2
18:56 42.3 °F 39 °F 30.6 in SSE 0.9 mph 2 mph 88% 0 in 0 W/m2
19:01 42.1 °F 38.8 °F 30.6 in Calm   1 mph 88% 0 in 0 W/m2
19:06 41.7 °F 38.7 °F 30.6 in Calm     89% 0 in 0 W/m2
19:11 41.5 °F 38.5 °F 30.6 in Calm     89% 0 in 0 W/m2
19:16 41.4 °F 38.3 °F 30.6 in Calm     89% 0 in 0 W/m2
19:21 41.2 °F 38.1 °F 30.6 in Calm   2 mph 89% 0 in 0 W/m2
19:26 40.8 °F 37.8 °F 30.6 in SSE 0.9 mph 1 mph 89% 0 in 0 W/m2
19:31 40.6 °F 37.9 °F 30.6 in SSE 0.9 mph 2 mph 90% 0 in 0 W/m2
19:36 40.5 °F 37.8 °F 30.6 in Calm   2 mph 90% 0 in 0 W/m2
19:41 40.3 °F 37.6 °F 30.6 in Calm     90% 0 in 0 W/m2
19:46 40.1 °F 37.4 °F 30.6 in SSE 0.9 mph 1 mph 90% 0 in 0 W/m2
19:51 39.9 °F 37.2 °F 30.6 in Calm   1 mph 90% 0 in 0 W/m2
19:56 39.7 °F 37.4 °F 30.6 in Calm   1 mph 91% 0 in 0 W/m2
20:01 39.7 °F 37.4 °F 30.6 in Calm     91% 0 in 0 W/m2
20:06 39.6 °F 37.2 °F 30.6 in Calm   1 mph 91% 0 in 0 W/m2
20:11 39.4 °F 37 °F 30.6 in SE 2 mph 2 mph 91% 0 in 0 W/m2
20:16 39.4 °F 37.2 °F 30.6 in Calm   2 mph 92% 0 in 0 W/m2
20:21 39 °F 36.9 °F 30.6 in Calm   1 mph 92% 0 in 0 W/m2
20:26 39 °F 36.7 °F 30.6 in Calm   2 mph 91% 0 in 0 W/m2
20:31 38.8 °F 36.7 °F 30.6 in Calm   1 mph 92% 0 in 0 W/m2
20:36 38.8 °F 36.7 °F 30.6 in SE 2 mph 2 mph 92% 0 in 0 W/m2
20:41 38.8 °F 36.7 °F 30.6 in Calm   2 mph 92% 0 in 0 W/m2
20:46 38.7 °F 36.5 °F 30.6 in South 0.9 mph 2 mph 92% 0 in 0 W/m2
20:51 38.7 °F 36.5 °F 30.6 in Calm     92% 0 in 0 W/m2
20:56 38.7 °F 36.9 °F 30.6 in South 0.9 mph 1 mph 93% 0 in 0 W/m2
21:01 38.7 °F 36.9 °F 30.6 in Calm     93% 0 in 0 W/m2
21:06 38.8 °F 37 °F 30.6 in Calm   1 mph 93% 0 in 0 W/m2
21:11 38.8 °F 37 °F 30.6 in Calm     93% 0 in 0 W/m2
21:16 38.8 °F 37 °F 30.6 in Calm   1 mph 93% 0 in 0 W/m2
21:21 38.8 °F 36.7 °F 30.6 in Calm   1 mph 92% 0 in 0 W/m2
21:26 38.8 °F 36.7 °F 30.6 in NW 0.9 mph 1 mph 92% 0 in 0 W/m2
21:31 38.7 °F 36.5 °F 30.6 in Calm     92% 0 in 0 W/m2
21:36 38.5 °F 36.3 °F 30.6 in WSW 0.9 mph 2 mph 92% 0 in 0 W/m2
21:41 38.1 °F 36 °F 30.6 in Calm   2 mph 92% 0 in 0 W/m2
21:46 37.9 °F 35.8 °F 30.6 in Calm   1 mph 92% 0 in 0 W/m2
21:51 37.8 °F 35.6 °F 30.6 in Calm   2 mph 92% 0 in 0 W/m2
21:56 37.6 °F 35.4 °F 30.6 in Calm   1 mph 92% 0 in 0 W/m2
22:01 37.6 °F 35.4 °F 30.6 in Calm   1 mph 92% 0 in 0 W/m2
22:06 37.4 °F 35.6 °F 30.6 in Calm   1 mph 93% 0 in 0 W/m2
22:11 37.2 °F 35.4 °F 30.6 in WSW 0.9 mph 2 mph 93% 0 in 0 W/m2
22:17 37.2 °F 35.4 °F 30.6 in Calm     93% 0 in 0 W/m2
22:22 37.2 °F 35.4 °F 30.6 in Calm   2 mph 93% 0 in 0 W/m2
22:27 37 °F 35.2 °F 30.6 in Calm   1 mph 93% 0 in 0 W/m2
22:32 37 °F 35.4 °F 30.6 in Calm     94% 0 in 0 W/m2
22:37 37.2 °F 35.6 °F 30.6 in WSW 0.9 mph 1 mph 94% 0 in 0 W/m2
22:42 37 °F 35.4 °F 30.6 in Calm   2 mph 94% 0 in 0 W/m2
22:47 37 °F 35.4 °F 30.6 in Calm   2 mph 94% 0 in 0 W/m2
22:52 37 °F 35.4 °F 30.6 in Calm   1 mph 94% 0 in 0 W/m2
22:57 37 °F 35.4 °F 30.6 in Calm     94% 0 in 0 W/m2
23:02 37 °F 35.4 °F 30.6 in Calm     94% 0 in 0 W/m2
23:07 37.2 °F 35.6 °F 30.6 in Calm   1 mph 94% 0 in 0 W/m2
23:12 37.2 °F 35.6 °F 30.6 in SW 2 mph 2 mph 94% 0 in 0 W/m2
23:17 37 °F 35.4 °F 30.6 in Calm     94% 0 in 0 W/m2
23:22 37 °F 35.4 °F 30.6 in Calm     94% 0 in 0 W/m2
23:27 37 °F 35.4 °F 30.6 in SW 2 mph 2 mph 94% 0 in 0 W/m2
23:32 37 °F 35.4 °F 30.6 in SW 0.9 mph 2 mph 94% 0 in 0 W/m2
23:37 37 °F 35.4 °F 30.6 in Calm     94% 0 in 0 W/m2
23:42 36.9 °F 35.2 °F 30.6 in SW 0.9 mph 2 mph 94% 0 in 0 W/m2
23:47 36.9 °F 35.2 °F 30.6 in Calm   1 mph 94% 0 in 0 W/m2
23:52 36.9 °F 35.2 °F 30.6 in Calm   1 mph 94% 0 in 0 W/m2
23:57 36.9 °F 35.2 °F 30.6 in SW 0.9 mph 1 mph 94% 0 in 0 W/m2
Juneau County Weather
Compliments of Weather Underground - 4 mb